Time;durP1;ratioP1;P1;durP2;ratioP2;P2;SDS_P1;SDS_P2;PMS_P1;PMS_P2;Temp;Humidity;BMP_temperature;BMP_pressure;BME280_temperature;BME280_humidity;BME280_pressure;Samples;Min_cycle;Max_cycle;Signal;HPM_P1;HPM_P2
2023/03/02 00:01:35;;;;;;;29.88;15.55;;;;;;;1.44;69.70;98477.19;5048469;28;20039;-85
2023/03/02 00:04:05;;;;;;;32.83;14.88;;;;;;;1.48;69.56;98461.28;5042876;28;20033;-85
2023/03/02 00:06:33;;;;;;;27.73;12.88;;;;;;;1.48;69.79;98463.06;5045847;28;20520;-85
2023/03/02 00:08:59;;;;;;;23.95;13.32;;;;;;;1.41;69.72;98469.72;5040861;28;20034;-85
2023/03/02 00:11:29;;;;;;;25.75;13.93;;;;;;;1.25;70.30;98450.34;5041370;28;20037;-85
2023/03/02 00:13:54;;;;;;;27.52;14.32;;;;;;;1.05;70.59;98462.38;5039411;28;20107;-85
2023/03/02 00:16:20;;;;;;;27.45;14.23;;;;;;;0.99;71.16;98457.75;5042930;28;20574;-85
2023/03/02 00:18:46;;;;;;;27.83;13.95;;;;;;;0.83;71.74;98457.41;5045045;28;20068;-85
2023/03/02 00:21:12;;;;;;;21.58;11.48;;;;;;;0.64;71.92;98449.56;5043868;28;20147;-85
2023/03/02 00:23:37;;;;;;;24.25;13.35;;;;;;;0.68;72.64;98445.78;5042381;28;20029;-86
2023/03/02 00:26:05;;;;;;;28.92;14.32;;;;;;;0.66;72.89;98451.09;5042695;28;20032;-85
2023/03/02 00:28:31;;;;;;;28.38;14.98;;;;;;;0.57;73.07;98445.88;5047833;28;20079;-85
2023/03/02 00:30:57;;;;;;;33.22;16.15;;;;;;;0.56;73.06;98450.22;5037312;28;20053;-85
2023/03/02 00:33:22;;;;;;;27.50;13.15;;;;;;;0.44;73.38;98428.81;5054272;28;20068;-85
2023/03/02 00:35:48;;;;;;;28.42;15.75;;;;;;;0.46;73.42;98439.00;5043315;28;20500;-85
2023/03/02 00:38:14;;;;;;;30.40;15.43;;;;;;;0.42;73.70;98432.44;5042755;28;20103;-85
2023/03/02 00:40:48;;;;;;;27.13;12.68;;;;;;;0.44;73.80;98435.75;5046471;28;20059;-85
2023/03/02 00:43:14;;;;;;;27.67;13.60;;;;;;;0.42;74.07;98438.47;5043187;28;20041;-85
2023/03/02 00:45:39;;;;;;;23.80;11.43;;;;;;;0.34;74.34;98432.28;5041569;28;20400;-85
2023/03/02 00:48:05;;;;;;;32.38;15.23;;;;;;;0.28;75.02;98414.72;5047402;28;20032;-85
2023/03/02 00:50:31;;;;;;;29.70;14.82;;;;;;;0.43;75.22;98424.59;5045479;28;20124;-85
2023/03/02 00:52:56;;;;;;;28.58;15.10;;;;;;;0.52;74.99;98412.69;5043714;28;20041;-85
2023/03/02 00:55:22;;;;;;;31.02;15.43;;;;;;;0.57;75.05;98405.38;5049192;28;20150;-85
2023/03/02 00:57:53;;;;;;;27.95;14.30;;;;;;;0.71;74.92;98407.59;5049198;28;20033;-85
2023/03/02 01:00:23;;;;;;;25.90;13.20;;;;;;;0.82;75.01;98413.63;5046474;28;20033;-85
2023/03/02 01:02:49;;;;;;;23.25;12.07;;;;;;;0.83;74.90;98404.94;5051000;28;20081;-85
2023/03/02 01:05:16;;;;;;;26.75;12.70;;;;;;;0.86;75.06;98402.09;5046497;28;20761;-85
2023/03/02 01:07:42;;;;;;;25.40;13.45;;;;;;;0.87;74.83;98398.56;5046703;28;20041;-85
2023/03/02 01:10:09;;;;;;;24.63;12.73;;;;;;;0.83;74.53;98399.78;5048910;28;20043;-85
2023/03/02 01:12:35;;;;;;;27.48;12.95;;;;;;;0.83;74.21;98394.59;5050561;28;20115;-85
2023/03/02 01:15:01;;;;;;;24.80;13.02;;;;;;;0.89;73.88;98388.91;5066528;28;20122;-85
2023/03/02 01:17:26;;;;;;;24.20;12.20;;;;;;;0.96;73.55;98390.03;5042496;28;20083;-85
2023/03/02 01:19:52;;;;;;;23.30;12.77;;;;;;;0.93;73.53;98388.53;5051214;28;20124;-85
2023/03/02 01:22:20;;;;;;;22.52;10.63;;;;;;;0.84;73.45;98380.75;5044795;28;20037;-85
2023/03/02 01:24:46;;;;;;;25.08;12.27;;;;;;;0.81;73.62;98371.50;5042027;28;20373;-85
2023/03/02 01:27:11;;;;;;;28.27;13.80;;;;;;;0.92;73.51;98361.06;5051512;28;20041;-85
2023/03/02 01:29:37;;;;;;;24.92;13.30;;;;;;;0.93;73.18;98359.31;5046736;28;20036;-85
2023/03/02 01:32:03;;;;;;;20.83;10.98;;;;;;;0.95;72.95;98372.91;5050151;28;20089;-85
2023/03/02 01:34:29;;;;;;;22.45;12.32;;;;;;;0.94;73.03;98363.53;5051020;28;20053;-85
2023/03/02 01:36:55;;;;;;;27.50;13.70;;;;;;;0.86;73.07;98340.13;5043958;28;20406;-85
2023/03/02 01:39:21;;;;;;;23.80;13.27;;;;;;;1.01;73.33;98359.44;5045203;28;20037;-85
2023/03/02 01:41:49;;;;;;;24.05;12.73;;;;;;;0.98;73.01;98359.72;5055115;28;20527;-86
2023/03/02 01:44:45;;;;;;;29.85;13.15;;;;;;;1.04;73.17;98361.78;5050213;28;20133;-86
2023/03/02 01:47:13;;;;;;;21.98;10.38;;;;;;;0.96;73.36;98353.88;5047851;28;20037;-85
2023/03/02 01:49:46;;;;;;;26.67;12.93;;;;;;;0.96;73.49;98356.44;5046929;28;20037;-86
2023/03/02 01:52:12;;;;;;;23.90;12.15;;;;;;;0.99;73.43;98359.59;5045314;28;20150;-85
2023/03/02 01:54:41;;;;;;;26.20;13.18;;;;;;;1.05;73.67;98363.41;5048943;28;20033;-85
2023/03/02 01:57:09;;;;;;;24.90;13.32;;;;;;;1.01;73.59;98360.25;5057759;28;20071;-85
2023/03/02 01:59:40;;;;;;;25.65;12.73;;;;;;;0.93;73.55;98354.97;5042153;28;20049;-85
2023/03/02 02:02:11;;;;;;;23.05;11.68;;;;;;;0.91;73.54;98350.88;5048480;28;20041;-85
2023/03/02 02:04:43;;;;;;;25.48;11.70;;;;;;;0.88;73.77;98345.97;5045266;28;20503;-85
2023/03/02 02:07:09;;;;;;;23.25;12.32;;;;;;;0.72;74.27;98330.97;5043399;28;20033;-85
2023/03/02 02:09:49;;;;;;;28.65;13.27;;;;;;;0.83;74.07;98335.22;5045358;28;20374;-85
2023/03/02 02:12:18;;;;;;;26.75;13.18;;;;;;;0.85;74.29;98335.91;5044734;28;20459;-85
2023/03/02 02:14:46;;;;;;;14.73;8.65;;;;;;;0.70;74.46;98328.53;5042704;28;20041;-85
2023/03/02 02:17:13;;;;;;;21.92;9.75;;;;;;;0.60;74.84;98332.88;5042250;28;20056;-85
2023/03/02 02:20:01;;;;;;;19.88;10.98;;;;;;;0.62;75.17;98333.53;5044201;28;20112;-85
2023/03/02 02:23:20;;;;;;;26.85;13.13;;;;;;;0.60;75.52;98325.13;5047866;28;20056;-85
2023/03/02 02:25:48;;;;;;;27.65;12.82;;;;;;;0.61;75.46;98321.59;5044825;28;20128;-85
2023/03/02 02:28:23;;;;;;;25.48;11.98;;;;;;;0.53;75.78;98323.97;5041955;28;20044;-85
2023/03/02 02:31:02;;;;;;;26.67;13.05;;;;;;;0.60;75.80;98332.03;5047891;28;20029;-85
2023/03/02 02:33:31;;;;;;;24.77;12.82;;;;;;;0.57;76.12;98315.03;5063402;28;20090;-86
2023/03/02 02:36:07;;;;;;;26.00;12.18;;;;;;;0.56;76.22;98316.00;5042115;28;20043;-85
2023/03/02 02:38:36;;;;;;;28.75;12.98;;;;;;;0.58;76.20;98319.25;5039875;28;20045;-85
2023/03/02 02:41:10;;;;;;;20.15;11.25;;;;;;;0.52;76.10;98307.69;5043493;28;20056;-85
2023/03/02 02:43:35;;;;;;;28.50;11.50;;;;;;;0.36;76.56;98315.13;5049864;28;20029;-86
2023/03/02 02:46:02;;;;;;;24.67;12.15;;;;;;;0.35;76.95;98322.97;5059525;28;21014;-85
2023/03/02 02:48:31;;;;;;;26.05;12.50;;;;;;;0.16;77.47;98314.19;5040481;28;20048;-85
2023/03/02 02:50:59;;;;;;;23.58;11.75;;;;;;;0.26;78.08;98320.22;5036925;28;20028;-85
2023/03/02 02:53:49;;;;;;;16.92;9.35;;;;;;;0.30;77.98;98318.22;5039982;28;20028;-85
2023/03/02 02:56:16;;;;;;;21.10;10.00;;;;;;;0.31;78.21;98324.19;5051327;28;20036;-86
2023/03/02 02:58:54;;;;;;;31.73;12.80;;;;;;;0.43;78.30;98325.72;5040884;28;20028;-85
2023/03/02 03:01:24;;;;;;;19.42;8.95;;;;;;;0.44;78.07;98324.78;5041666;28;20043;-86
2023/03/02 03:04:04;;;;;;;22.55;12.25;;;;;;;0.41;78.15;98323.25;5046695;28;20120;-85
2023/03/02 03:06:37;;;;;;;17.95;8.95;;;;;;;0.46;78.07;98330.63;5031721;28;20393;-86
2023/03/02 03:09:05;;;;;;;24.60;12.45;;;;;;;0.52;77.96;98330.91;5046870;28;20545;-85
2023/03/02 03:11:36;;;;;;;24.17;12.32;;;;;;;0.54;77.98;98320.47;5052029;28;20098;-85
2023/03/02 03:14:14;;;;;;;21.55;11.20;;;;;;;0.56;78.02;98325.50;5048055;28;20048;-85
2023/03/02 03:16:42;;;;;;;25.25;12.10;;;;;;;0.47;77.82;98320.16;5037813;28;20150;-85
2023/03/02 03:19:23;;;;;;;24.00;12.23;;;;;;;0.56;78.06;98323.75;5046168;28;20040;-85
2023/03/02 03:21:55;;;;;;;29.55;13.38;;;;;;;0.58;77.93;98316.66;5045207;28;20471;-85
2023/03/02 03:24:21;;;;;;;23.13;11.35;;;;;;;0.64;77.26;98323.88;5050041;28;20033;-85
2023/03/02 03:26:48;;;;;;;25.95;12.25;;;;;;;0.69;77.16;98316.56;5044441;28;20059;-84
2023/03/02 03:29:16;;;;;;;23.23;12.20;;;;;;;0.60;76.94;98317.38;5035468;28;20600;-85
2023/03/02 03:31:42;;;;;;;27.52;11.90;;;;;;;0.72;76.81;98315.47;5043531;28;20091;-85
2023/03/02 03:34:08;;;;;;;24.98;12.10;;;;;;;0.75;76.59;98318.63;5048769;28;20028;-85
2023/03/02 03:36:35;;;;;;;23.38;12.00;;;;;;;0.76;76.52;98312.50;5044285;28;20037;-85
2023/03/02 03:39:04;;;;;;;27.70;12.85;;;;;;;0.84;76.47;98318.78;5047078;28;20037;-85
2023/03/02 03:41:30;;;;;;;28.58;14.05;;;;;;;0.92;76.37;98321.53;5046791;28;21052;-85
2023/03/02 03:43:56;;;;;;;24.83;13.23;;;;;;;0.90;76.10;98311.34;5047070;28;20493;-85
2023/03/02 03:46:22;;;;;;;23.90;12.35;;;;;;;0.93;75.91;98310.25;5046864;28;20059;-85
2023/03/02 03:48:48;;;;;;;22.60;11.70;;;;;;;0.95;75.43;98310.91;5042791;28;20041;-85
2023/03/02 03:51:13;;;;;;;30.60;13.05;;;;;;;1.02;75.21;98315.44;5045636;28;20055;-85
2023/03/02 03:53:39;;;;;;;26.13;12.23;;;;;;;0.85;75.22;98304.94;5045081;28;20088;-85
2023/03/02 03:56:05;;;;;;;24.95;12.73;;;;;;;0.94;75.20;98306.69;5042647;28;20473;-85
2023/03/02 03:58:31;;;;;;;31.63;12.60;;;;;;;0.92;75.24;98309.44;5049400;28;20037;-85
2023/03/02 04:00:58;;;;;;;24.85;12.95;;;;;;;0.69;75.61;98302.84;5047803;28;20037;-85
2023/03/02 04:03:24;;;;;;;23.33;11.82;;;;;;;0.65;75.95;98307.44;5043830;28;20059;-85
2023/03/02 04:05:51;;;;;;;27.60;12.80;;;;;;;0.59;76.68;98304.56;5044136;28;20045;-85
2023/03/02 04:08:17;;;;;;;22.67;11.88;;;;;;;0.50;77.04;98290.72;5042668;28;20040;-85
2023/03/02 04:10:44;;;;;;;19.60;10.10;;;;;;;0.35;77.45;98313.47;5042398;28;20519;-87
2023/03/02 04:13:11;;;;;;;23.52;12.38;;;;;;;0.20;78.16;98313.00;5048617;28;20048;-85
2023/03/02 04:15:38;;;;;;;15.55;8.65;;;;;;;-0.15;79.23;98309.97;5045174;28;20037;-85
2023/03/02 04:18:04;;;;;;;18.15;8.40;;;;;;;-0.20;79.85;98310.34;5046958;28;20041;-85
2023/03/02 04:20:30;;;;;;;18.40;9.55;;;;;;;-0.15;80.58;98304.81;5046949;28;20045;-85
2023/03/02 04:22:57;;;;;;;24.08;11.73;;;;;;;-0.16;80.91;98305.75;5045750;28;20033;-86
2023/03/02 04:25:26;;;;;;;22.60;11.75;;;;;;;-0.24;80.77;98296.09;5048014;28;20044;-85
2023/03/02 04:27:52;;;;;;;10.68;7.40;;;;;;;-0.29;81.45;98305.94;5036288;28;20029;-85
2023/03/02 04:30:24;;;;;;;23.88;10.77;;;;;;;-0.38;81.38;98289.47;5042849;28;20033;-85
2023/03/02 04:32:49;;;;;;;17.17;8.07;;;;;;;-0.50;82.06;98292.22;5051160;28;20037;-85
2023/03/02 04:35:15;;;;;;;23.52;12.00;;;;;;;-0.48;82.06;98301.50;5062740;28;20063;-85
2023/03/02 04:37:42;;;;;;;25.70;13.02;;;;;;;-0.47;82.49;98308.28;5062299;28;20033;-85
2023/03/02 04:40:10;;;;;;;25.08;11.80;;;;;;;-0.49;82.71;98286.94;5043342;28;20037;-85
2023/03/02 04:42:36;;;;;;;20.85;9.70;;;;;;;-0.58;82.73;98298.81;5048187;28;20072;-85
2023/03/02 04:45:01;;;;;;;21.38;9.73;;;;;;;-0.58;83.46;98309.13;5050835;28;20061;-85
2023/03/02 04:47:27;;;;;;;23.08;11.80;;;;;;;-0.55;83.51;98313.22;5049273;28;20036;-85
2023/03/02 04:49:53;;;;;;;8.98;5.90;;;;;;;-0.66;83.80;98311.53;5045688;28;20068;-85
2023/03/02 04:52:20;;;;;;;25.35;11.68;;;;;;;-0.53;83.72;98306.19;5050561;28;20037;-85
2023/03/02 04:54:46;;;;;;;24.33;11.73;;;;;;;-0.49;83.59;98302.41;5046043;28;20116;-85
2023/03/02 04:57:12;;;;;;;24.00;12.07;;;;;;;-0.49;83.16;98297.25;5044819;28;20108;-85
2023/03/02 04:59:37;;;;;;;23.35;12.15;;;;;;;-0.38;83.02;98299.78;5040364;28;20046;-85
2023/03/02 05:02:04;;;;;;;24.17;11.85;;;;;;;-0.35;82.92;98301.28;5041726;28;20076;-85
2023/03/02 05:04:30;;;;;;;22.00;10.23;;;;;;;-0.36;83.16;98287.59;5045754;28;20048;-85
2023/03/02 05:06:56;;;;;;;20.08;11.27;;;;;;;-0.44;83.00;98291.72;5044882;28;20025;-84
2023/03/02 05:09:27;;;;;;;24.23;12.23;;;;;;;-0.37;83.24;98292.84;5044477;28;20032;-85
2023/03/02 05:11:55;;;;;;;23.58;12.93;;;;;;;-0.27;82.87;98288.59;5052412;28;20112;-85
2023/03/02 05:14:21;;;;;;;24.02;12.10;;;;;;;-0.18;82.89;98292.16;5047723;28;20077;-85
2023/03/02 05:16:46;;;;;;;19.75;10.25;;;;;;;-0.15;83.05;98292.72;5044236;28;20072;-85
2023/03/02 05:19:12;;;;;;;25.83;12.30;;;;;;;-0.04;82.79;98281.53;5050412;28;20057;-85
2023/03/02 05:21:39;;;;;;;23.23;11.75;;;;;;;0.05;82.52;98296.22;5050258;28;20041;-85
2023/03/02 05:24:05;;;;;;;24.40;11.55;;;;;;;0.08;82.84;98290.00;5044578;28;20028;-85
2023/03/02 05:26:30;;;;;;;23.98;11.35;;;;;;;0.23;82.46;98288.69;5046993;28;20068;-84
2023/03/02 05:28:56;;;;;;;24.85;12.50;;;;;;;0.39;82.02;98283.06;5047588;28;20507;-85
2023/03/02 05:31:30;;;;;;;25.55;11.48;;;;;;;0.49;81.82;98286.50;5046487;28;20033;-85
2023/03/02 05:33:56;;;;;;;25.48;12.23;;;;;;;0.58;80.94;98293.44;5043663;28;20047;-85
2023/03/02 05:36:22;;;;;;;24.42;12.80;;;;;;;0.57;81.08;98278.09;5046933;28;20041;-84
2023/03/02 05:38:47;;;;;;;24.98;12.20;;;;;;;0.71;80.50;98291.44;5046004;28;20037;-85
2023/03/02 05:41:13;;;;;;;22.33;11.27;;;;;;;0.72;80.33;98287.94;5038123;28;20038;-85
2023/03/02 05:43:39;;;;;;;24.15;12.32;;;;;;;0.89;80.12;98295.94;5045299;28;20121;-84
2023/03/02 05:46:05;;;;;;;20.90;10.52;;;;;;;0.95;79.98;98295.41;5046020;28;20034;-84
2023/03/02 05:48:31;;;;;;;20.05;10.50;;;;;;;1.12;79.59;98301.69;5048813;28;20037;-85
2023/03/02 05:50:57;;;;;;;22.30;11.80;;;;;;;1.24;78.62;98301.44;5044497;28;20033;-85
2023/03/02 05:53:23;;;;;;;23.42;10.40;;;;;;;1.26;78.27;98294.38;5047996;28;20343;-85
2023/03/02 05:55:50;;;;;;;21.60;11.20;;;;;;;1.37;78.12;98297.75;5044172;28;20037;-85
2023/03/02 05:58:18;;;;;;;21.75;11.57;;;;;;;1.43;77.66;98299.78;5042172;28;20108;-84
2023/03/02 06:00:47;;;;;;;22.45;11.27;;;;;;;1.48;77.55;98307.97;5041731;28;20040;-85
2023/03/02 06:03:12;;;;;;;22.05;11.13;;;;;;;1.56;76.87;98313.25;5047319;28;20060;-85
2023/03/02 06:05:38;;;;;;;21.00;11.27;;;;;;;1.65;76.62;98314.22;5048158;28;20518;-85
2023/03/02 06:08:05;;;;;;;20.25;11.35;;;;;;;1.53;76.69;98316.13;5042933;28;20037;-85
2023/03/02 06:10:32;;;;;;;16.55;8.95;;;;;;;1.43;76.98;98320.47;5045800;28;20045;-85
2023/03/02 06:12:58;;;;;;;25.98;11.82;;;;;;;1.41;76.17;98314.63;5047255;28;20425;-84
2023/03/02 06:15:23;;;;;;;24.38;11.57;;;;;;;1.48;75.73;98318.28;5053886;28;20029;-85
2023/03/02 06:17:50;;;;;;;26.15;12.88;;;;;;;1.39;75.76;98313.97;5051092;28;20036;-85
2023/03/02 06:20:17;;;;;;;22.92;12.05;;;;;;;1.38;75.80;98325.22;5049983;28;20036;-85
2023/03/02 06:22:45;;;;;;;24.00;11.55;;;;;;;1.29;75.90;98324.28;5045510;28;20029;-85
2023/03/02 06:25:23;;;;;;;22.30;11.85;;;;;;;1.31;76.63;98330.94;5044680;28;20102;-85
2023/03/02 06:27:52;;;;;;;26.88;11.70;;;;;;;1.27;76.53;98329.59;5045543;28;20032;-85
2023/03/02 06:30:24;;;;;;;25.30;12.55;;;;;;;1.32;76.35;98330.00;5041360;28;20643;-85
2023/03/02 06:32:50;;;;;;;26.63;10.73;;;;;;;1.48;77.11;98333.81;5044480;28;20045;-85
2023/03/02 06:35:16;;;;;;;23.13;10.60;;;;;;;1.48;76.55;98331.22;5043254;28;20037;-84
2023/03/02 06:37:42;;;;;;;24.00;11.50;;;;;;;1.53;76.27;98329.03;5047100;28;20036;-85
2023/03/02 06:40:12;;;;;;;23.85;12.00;;;;;;;1.56;75.91;98336.50;5047128;28;20041;-85
2023/03/02 06:42:40;;;;;;;27.38;12.27;;;;;;;1.55;75.93;98319.38;5049307;28;20091;-85
2023/03/02 06:45:06;;;;;;;22.88;10.57;;;;;;;1.50;76.29;98327.56;5042975;28;20500;-86
2023/03/02 06:47:32;;;;;;;22.33;11.82;;;;;;;1.64;76.65;98328.91;5044864;28;20041;-85
2023/03/02 06:49:58;;;;;;;22.83;12.40;;;;;;;1.83;76.34;98335.81;5047617;28;20043;-86
2023/03/02 06:52:26;;;;;;;23.50;12.25;;;;;;;1.78;75.97;98336.22;5044574;28;20083;-85
2023/03/02 06:54:52;;;;;;;25.73;12.55;;;;;;;1.82;75.48;98322.09;5044498;28;20128;-85
2023/03/02 06:57:17;;;;;;;20.45;10.45;;;;;;;2.03;75.54;98334.00;5048991;28;20028;-85
2023/03/02 06:59:43;;;;;;;21.67;11.57;;;;;;;2.02;74.68;98319.44;5041043;28;20033;-85
2023/03/02 07:02:10;;;;;;;22.35;11.93;;;;;;;2.15;74.55;98343.25;5045465;28;20111;-85
2023/03/02 07:04:36;;;;;;;20.00;10.45;;;;;;;2.17;74.51;98336.19;5044995;28;20059;-85
2023/03/02 07:07:01;;;;;;;28.02;12.88;;;;;;;2.27;73.90;98329.19;5046985;28;20492;-85
2023/03/02 07:09:29;;;;;;;20.23;10.43;;;;;;;2.28;73.54;98338.59;5039173;28;20337;-86
2023/03/02 07:11:55;;;;;;;21.27;11.13;;;;;;;2.37;73.48;98342.09;5040782;28;20041;-86
2023/03/02 07:14:21;;;;;;;25.70;11.07;;;;;;;2.46;72.77;98337.81;5048486;28;20072;-86
2023/03/02 07:16:47;;;;;;;16.67;9.43;;;;;;;2.37;72.93;98326.56;5047604;28;20455;-86
2023/03/02 07:19:12;;;;;;;19.83;10.68;;;;;;;2.52;72.42;98325.16;5045678;28;20504;-86
2023/03/02 07:21:38;;;;;;;21.30;11.60;;;;;;;2.62;72.32;98335.44;5042898;28;20045;-85
2023/03/02 07:24:04;;;;;;;19.13;9.75;;;;;;;2.55;72.57;98334.41;5043571;28;20033;-86
2023/03/02 07:26:30;;;;;;;26.73;12.20;;;;;;;2.59;72.50;98336.56;5045687;28;20033;-86
2023/03/02 07:28:58;;;;;;;21.48;11.48;;;;;;;2.76;71.85;98329.81;5059624;28;20029;-89
2023/03/02 07:31:24;;;;;;;21.23;10.85;;;;;;;2.86;71.25;98330.56;5037953;28;20040;-85
2023/03/02 07:33:50;;;;;;;23.55;11.10;;;;;;;2.91;70.78;98332.72;5043797;28;20047;-85
2023/03/02 07:36:16;;;;;;;22.67;11.70;;;;;;;3.03;70.52;98322.97;5050951;28;20041;-84
2023/03/02 07:38:41;;;;;;;23.50;12.15;;;;;;;3.15;69.87;98332.16;5050364;28;20310;-85
2023/03/02 07:41:08;;;;;;;23.27;11.68;;;;;;;3.23;70.32;98337.41;5046132;28;20099;-85
2023/03/02 07:43:35;;;;;;;25.17;13.02;;;;;;;3.40;69.86;98333.22;5045505;28;20083;-85
2023/03/02 07:46:18;;;;;;;23.90;10.98;;;;;;;3.40;69.48;98331.44;5050519;28;20032;-84
2023/03/02 07:48:43;;;;;;;24.02;11.57;;;;;;;3.54;69.54;98331.88;5049163;28;20534;-84
2023/03/02 07:51:09;;;;;;;21.58;11.30;;;;;;;3.57;69.56;98329.81;5053654;28;20037;-84
2023/03/02 07:53:35;;;;;;;25.65;11.90;;;;;;;3.64;69.24;98327.41;5045915;28;20112;-83
2023/03/02 07:56:09;;;;;;;22.75;11.73;;;;;;;3.81;68.92;98318.81;5041616;28;20048;-84
2023/03/02 07:58:36;;;;;;;19.08;10.05;;;;;;;3.97;68.37;98329.31;5043485;28;20065;-84
2023/03/02 08:01:02;;;;;;;23.85;7.93;;;;;;;3.93;68.15;98317.59;5044754;28;20039;-84
2023/03/02 08:03:28;;;;;;;22.38;11.70;;;;;;;4.15;68.18;98331.03;5043748;28;20025;-84
2023/03/02 08:06:09;;;;;;;25.98;12.63;;;;;;;4.29;68.19;98325.28;5044313;28;20039;-85
2023/03/02 08:08:36;;;;;;;25.75;12.35;;;;;;;4.61;67.59;98327.19;5045619;28;20045;-85
2023/03/02 08:11:12;;;;;;;28.73;12.43;;;;;;;4.68;66.47;98319.59;5038142;28;20041;-85
2023/03/02 08:13:39;;;;;;;24.30;11.80;;;;;;;4.81;65.53;98328.59;5042359;28;20050;-85
2023/03/02 08:16:08;;;;;;;22.60;12.00;;;;;;;4.99;65.04;98335.47;5039833;28;20083;-85
2023/03/02 08:18:36;;;;;;;23.08;12.13;;;;;;;5.23;64.83;98332.94;5043805;28;20042;-85
2023/03/02 08:21:02;;;;;;;21.88;10.93;;;;;;;5.40;63.95;98336.38;5041440;28;20107;-85
2023/03/02 08:23:28;;;;;;;20.52;10.52;;;;;;;5.62;65.25;98327.94;5047677;28;20664;-85
2023/03/02 08:25:54;;;;;;;25.38;11.85;;;;;;;5.87;62.82;98340.94;5042819;28;20053;-85
2023/03/02 08:28:21;;;;;;;27.77;12.55;;;;;;;6.01;62.67;98336.91;5040890;28;20037;-85
2023/03/02 08:31:02;;;;;;;13.05;7.07;;;;;;;5.96;60.44;98323.56;5048847;28;20036;-86
2023/03/02 08:33:29;;;;;;;20.45;10.95;;;;;;;6.17;60.70;98316.84;5043144;28;20100;-85
2023/03/02 08:36:00;;;;;;;20.55;10.20;;;;;;;6.42;59.42;98327.22;5045444;28;20135;-85
2023/03/02 08:38:27;;;;;;;17.15;10.15;;;;;;;6.58;58.30;98327.16;5041800;28;20534;-85
2023/03/02 08:40:53;;;;;;;20.38;10.20;;;;;;;6.73;58.15;98319.47;5049494;28;20033;-85
2023/03/02 08:43:21;;;;;;;21.40;10.60;;;;;;;6.89;59.20;98323.78;5039785;28;20037;-85
2023/03/02 08:45:56;;;;;;;20.63;10.27;;;;;;;7.04;57.49;98323.88;5050674;28;20037;-85
2023/03/02 08:48:24;;;;;;;21.00;9.90;;;;;;;7.14;56.68;98314.06;5041784;28;20489;-85
2023/03/02 08:51:02;;;;;;;19.98;9.85;;;;;;;7.17;55.77;98314.50;5037737;28;20029;-85
2023/03/02 08:53:32;;;;;;;17.70;9.73;;;;;;;7.41;56.67;98323.16;5039742;28;20036;-85
2023/03/02 08:55:57;;;;;;;20.90;10.30;;;;;;;7.36;55.75;98307.19;5038169;28;20489;-85
2023/03/02 08:58:23;;;;;;;18.20;10.55;;;;;;;7.46;55.73;98308.59;5044252;28;20056;-85
2023/03/02 09:00:49;;;;;;;19.83;10.35;;;;;;;7.54;55.05;98304.31;5039655;28;20028;-84
2023/03/02 09:03:15;;;;;;;18.27;8.40;;;;;;;7.56;54.62;98308.38;5043949;28;20048;-84
2023/03/02 09:05:41;;;;;;;18.10;8.85;;;;;;;7.64;54.30;98310.91;5043615;28;20499;-85
2023/03/02 09:08:07;;;;;;;26.77;11.30;;;;;;;7.86;54.80;98300.63;5041801;28;20095;-85
2023/03/02 09:10:33;;;;;;;17.98;10.35;;;;;;;8.07;53.98;98305.16;5056621;28;20041;-84
2023/03/02 09:12:59;;;;;;;20.30;10.48;;;;;;;8.19;53.28;98301.91;5040396;28;20503;-85
2023/03/02 09:15:24;;;;;;;19.90;9.85;;;;;;;8.26;52.91;98300.22;5054437;28;20116;-85
2023/03/02 09:17:50;;;;;;;21.58;10.02;;;;;;;8.45;54.16;98298.06;5042763;28;20380;-85
2023/03/02 09:20:15;;;;;;;18.58;10.13;;;;;;;8.37;52.46;98285.91;5045209;28;20036;-85
2023/03/02 09:22:47;;;;;;;19.90;9.80;;;;;;;8.51;52.05;98295.53;5046720;28;20090;-85
2023/03/02 09:25:14;;;;;;;17.85;9.23;;;;;;;8.56;51.96;98306.28;5056704;28;20386;-84
2023/03/02 09:27:40;;;;;;;16.73;8.43;;;;;;;8.58;51.36;98293.84;5045430;28;20507;-85
2023/03/02 09:30:07;;;;;;;21.73;10.27;;;;;;;8.69;52.16;98295.16;5047677;28;20041;-85
2023/03/02 09:32:33;;;;;;;16.20;8.75;;;;;;;8.87;51.86;98296.59;5047695;28;20392;-85
2023/03/02 09:34:59;;;;;;;16.02;8.63;;;;;;;9.00;51.75;98296.75;5045390;28;20072;-85
2023/03/02 09:37:27;;;;;;;17.23;9.98;;;;;;;9.09;50.66;98306.09;5045708;28;20104;-85
2023/03/02 09:39:53;;;;;;;19.77;9.40;;;;;;;9.02;50.78;98292.16;5046685;28;20039;-85
2023/03/02 09:42:53;;;;;;;17.70;9.27;;;;;;;9.12;50.24;98297.91;5046306;28;20033;-85
2023/03/02 09:45:43;;;;;;;18.77;8.95;;;;;;;9.25;50.55;98299.84;5047431;28;20033;-85
2023/03/02 09:48:34;;;;;;;17.60;8.15;;;;;;;9.25;51.03;98295.41;5046013;28;20098;-85
2023/03/02 09:51:36;;;;;;;21.40;9.67;;;;;;;9.44;50.67;98282.69;5043877;28;20040;-85
2023/03/02 09:54:20;;;;;;;18.15;9.00;;;;;;;9.55;50.30;98290.06;5045148;28;20029;-85
2023/03/02 09:56:49;;;;;;;20.70;9.43;;;;;;;9.59;49.54;98288.66;5041261;28;20044;-85
2023/03/02 09:59:40;;;;;;;16.17;8.45;;;;;;;9.77;49.62;98280.34;5040123;28;20492;-85
2023/03/02 10:02:28;;;;;;;16.65;9.10;;;;;;;9.89;49.03;98284.88;5046591;28;20025;-85
2023/03/02 10:04:59;;;;;;;14.80;8.55;;;;;;;10.04;49.82;98289.22;5045102;28;20037;-84
2023/03/02 10:07:31;;;;;;;19.40;9.50;;;;;;;10.12;48.85;98282.03;5051092;28;20167;-85
2023/03/02 10:10:31;;;;;;;17.50;9.48;;;;;;;10.19;48.14;98277.66;5043925;28;20453;-85
2023/03/02 10:13:18;;;;;;;18.55;9.43;;;;;;;10.24;48.38;98279.69;5047305;28;20389;-85
2023/03/02 10:16:12;;;;;;;17.83;8.95;;;;;;;10.39;47.89;98277.78;5045850;28;20096;-85
2023/03/02 10:18:55;;;;;;;17.48;8.48;;;;;;;10.49;48.23;98277.41;5044570;28;20037;-85
2023/03/02 10:21:46;;;;;;;16.83;9.20;;;;;;;10.33;47.75;98262.84;5044848;28;20037;-84
2023/03/02 10:24:28;;;;;;;18.52;8.23;;;;;;;10.41;47.59;98274.97;5045552;28;20025;-85
2023/03/02 10:27:09;;;;;;;17.05;8.63;;;;;;;10.43;47.28;98273.78;5049380;28;20691;-85
2023/03/02 10:29:56;;;;;;;15.70;7.82;;;;;;;10.63;47.35;98283.56;5041991;28;20037;-85
2023/03/02 10:32:37;;;;;;;17.75;8.48;;;;;;;10.75;47.61;98268.88;5049835;28;20118;-84
2023/03/02 10:35:25;;;;;;;18.90;8.63;;;;;;;10.80;47.19;98274.34;5046119;28;20125;-85
2023/03/02 10:38:01;;;;;;;15.07;8.13;;;;;;;10.95;47.17;98274.19;5044446;28;20179;-85
2023/03/02 10:41:01;;;;;;;14.98;8.82;;;;;;;10.87;46.18;98277.00;5046999;28;20146;-85
2023/03/02 10:43:57;;;;;;;18.80;8.97;;;;;;;10.97;46.80;98278.25;5047045;28;20388;-85
2023/03/02 10:46:22;;;;;;;16.83;8.68;;;;;;;11.07;46.94;98269.97;5047237;28;20048;-85
2023/03/02 10:49:00;;;;;;;17.83;8.20;;;;;;;11.33;47.62;98274.44;5046469;28;20037;-85
2023/03/02 10:51:28;;;;;;;16.13;8.95;;;;;;;11.46;45.77;98268.44;5043728;28;20065;-84
2023/03/02 10:54:12;;;;;;;13.05;7.60;;;;;;;11.51;45.17;98272.09;5047700;28;20029;-85
2023/03/02 10:56:46;;;;;;;13.70;8.10;;;;;;;11.62;45.46;98261.97;5045480;28;20068;-84
2023/03/02 10:59:42;;;;;;;16.88;8.40;;;;;;;11.63;44.82;98269.63;5042077;28;20033;-86
2023/03/02 11:02:26;;;;;;;19.73;8.35;;;;;;;11.50;44.59;98257.31;5040364;28;20041;-85
2023/03/02 11:05:09;;;;;;;22.23;7.60;;;;;;;11.71;45.45;98256.31;5042937;28;20045;-85
2023/03/02 11:07:35;;;;;;;12.65;7.38;;;;;;;11.78;45.08;98256.31;5042065;28;20397;-85
2023/03/02 11:10:16;;;;;;;17.23;7.97;;;;;;;11.88;44.90;98248.06;5041599;28;20040;-85
2023/03/02 11:12:47;;;;;;;14.63;7.88;;;;;;;12.06;45.21;98253.50;5039905;28;20053;-85
2023/03/02 11:15:20;;;;;;;13.85;6.72;;;;;;;12.05;44.49;98251.84;5041165;28;20029;-86
2023/03/02 11:18:27;;;;;;;13.88;6.38;;;;;;;12.15;44.18;98248.81;5046867;28;20041;-85
2023/03/02 11:21:05;;;;;;;15.65;7.43;;;;;;;12.20;44.03;98243.75;5045400;28;20040;-85
2023/03/02 11:24:07;;;;;;;12.30;7.45;;;;;;;12.29;43.94;98255.63;5041579;28;20512;-85
2023/03/02 11:26:57;;;;;;;16.38;7.03;;;;;;;12.38;43.73;98241.25;5041197;28;20037;-84
2023/03/02 11:29:35;;;;;;;12.55;7.28;;;;;;;12.50;43.66;98244.06;5028815;28;20136;-85
2023/03/02 11:32:07;;;;;;;15.07;7.60;;;;;;;12.62;43.41;98238.94;5043670;28;20652;-85
2023/03/02 11:34:48;;;;;;;13.52;7.30;;;;;;;12.62;43.35;98239.75;5039368;28;20041;-85
2023/03/02 11:37:33;;;;;;;16.35;8.15;;;;;;;12.57;43.39;98224.59;5046075;28;20411;-84
2023/03/02 11:40:11;;;;;;;17.67;8.00;;;;;;;12.59;43.13;98230.47;5062110;28;20163;-85
2023/03/02 11:42:43;;;;;;;14.95;8.02;;;;;;;12.64;43.43;98236.91;5038066;28;20044;-85